Time;durP1;ratioP1;P1;durP2;ratioP2;P2;SDS_P1;SDS_P2;PMS_P1;PMS_P2;Temp;Humidity;BMP_temperature;BMP_pressure;BME280_temperature;BME280_humidity;BME280_pressure;Samples;Min_cycle;Max_cycle;Signal;HPM_P1;HPM_P2
2023/07/30 00:01:55;;;;;;;1.40;1.30;;;16.00;99.90;;;;;;4988990;28;20215;-87
2023/07/30 00:04:21;;;;;;;1.45;1.35;;;16.30;1.00;;;;;;5005976;28;20184;-85
2023/07/30 00:06:46;;;;;;;1.45;1.30;;;15.90;99.90;;;;;;4988489;28;20180;-87
2023/07/30 00:09:12;;;;;;;1.58;1.48;;;16.20;99.90;;;;;;4988447;28;20233;-84
2023/07/30 00:11:38;;;;;;;1.20;1.15;;;15.90;99.90;;;;;;5006107;28;20180;-86
2023/07/30 00:14:04;;;;;;;1.50;1.40;;;16.00;1.00;;;;;;4988300;28;20649;-86
2023/07/30 00:16:30;;;;;;;1.92;1.80;;;15.80;1.00;;;;;;4988610;28;20187;-85
2023/07/30 00:18:56;;;;;;;1.50;1.40;;;15.80;1.00;;;;;;5005591;28;20601;-86
2023/07/30 00:21:22;;;;;;;1.45;1.35;;;16.00;99.90;;;;;;4987781;28;20277;-85
2023/07/30 00:23:47;;;;;;;1.48;1.38;;;16.10;54.70;;;;;;4988328;28;20215;-86
2023/07/30 00:26:13;;;;;;;1.50;1.40;;;16.00;22.00;;;;;;4988265;28;20654;-85
2023/07/30 00:28:39;;;;;;;1.88;1.50;;;16.00;99.90;;;;;;4989934;28;20203;-86
2023/07/30 00:31:04;;;;;;;1.50;1.40;;;16.20;1.00;;;;;;5009269;28;20888;-85
2023/07/30 00:33:30;;;;;;;2.15;1.60;;;16.20;1.00;;;;;;4991965;28;20275;-85
2023/07/30 00:35:55;;;;;;;1.48;1.30;;;16.40;99.90;;;;;;4991645;28;20243;-86
2023/07/30 00:38:21;;;;;;;1.33;1.23;;;16.40;99.90;;;;;;4991955;28;20234;-85
2023/07/30 00:40:47;;;;;;;2.65;1.42;;;16.60;68.60;;;;;;4991233;28;20689;-88
2023/07/30 00:43:12;;;;;;;1.50;1.40;;;16.90;1.00;;;;;;4991638;28;20191;-86
2023/07/30 00:45:40;;;;;;;1.75;1.60;;;16.50;1.00;;;;;;4991546;28;20183;-85
2023/07/30 00:48:06;;;;;;;1.70;1.60;;;16.90;65.00;;;;;;5008643;28;20212;-84
2023/07/30 00:50:32;;;;;;;1.40;1.30;;;16.50;1.00;;;;;;4991145;28;20230;-87
2023/07/30 00:52:58;;;;;;;1.92;1.73;;;16.70;1.00;;;;;;5009385;28;20265;-86
2023/07/30 00:55:24;;;;;;;1.65;1.50;;;17.20;1.00;;;;;;5008888;28;20723;-85
2023/07/30 00:57:51;;;;;;;1.50;1.40;;;16.90;1.00;;;;;;5008772;28;20245;-87
2023/07/30 01:00:17;;;;;;;1.38;1.27;;;16.70;1.00;;;;;;4990808;28;20253;-87
2023/07/30 01:02:43;;;;;;;1.70;1.60;;;16.60;1.00;;;;;;4991095;28;20183;-86
2023/07/30 01:05:09;;;;;;;1.95;1.40;;;16.50;1.00;;;;;;5008746;28;20176;-86
2023/07/30 01:07:34;;;;;;;1.80;1.70;;;16.80;99.90;;;;;;4991726;28;20263;-86
2023/07/30 01:10:01;;;;;;;2.42;1.58;;;16.60;99.90;;;;;;4991497;28;20207;-86
2023/07/30 01:12:29;;;;;;;1.63;1.45;;;16.50;99.90;;;;;;4989305;28;20180;-87
2023/07/30 01:14:55;;;;;;;1.42;1.35;;;16.50;99.90;;;;;;5008382;28;20310;-86
2023/07/30 01:17:22;;;;;;;2.03;1.40;;;16.60;99.90;;;;;;4989407;28;20187;-85
2023/07/30 01:19:49;;;;;;;1.88;1.50;;;16.50;99.90;;;;;;4990054;28;20199;-85
2023/07/30 01:22:15;;;;;;;1.60;1.50;;;16.50;99.90;;;;;;4991015;28;20204;-87
2023/07/30 01:24:41;;;;;;;1.73;1.58;;;16.30;99.90;;;;;;5007149;28;20713;-86
2023/07/30 01:27:11;;;;;;;1.55;1.45;;;16.50;99.90;;;;;;4990947;28;20199;-86
2023/07/30 01:29:54;;;;;;;2.03;1.35;;;16.90;99.90;;;;;;5008629;28;20203;-86
2023/07/30 01:32:25;;;;;;;2.85;1.83;;;16.40;99.90;;;;;;4990650;28;20242;-85
2023/07/30 01:34:53;;;;;;;1.63;1.52;;;16.60;1.00;;;;;;5008249;28;20733;-85
2023/07/30 01:37:19;;;;;;;2.25;1.65;;;16.50;1.00;;;;;;4990562;28;20605;-85
2023/07/30 01:39:46;;;;;;;2.28;1.80;;;17.00;99.90;;;;;;4990432;28;20290;-85
2023/07/30 01:42:12;;;;;;;1.60;1.50;;;16.60;99.90;;;;;;4990318;28;20203;-86
2023/07/30 01:44:38;;;;;;;2.45;1.60;;;16.60;99.90;;;;;;4989848;28;20183;-86
2023/07/30 01:47:03;;;;;;;2.60;1.70;;;16.70;99.90;;;;;;4990445;28;20681;-86
2023/07/30 01:49:29;;;;;;;1.77;1.67;;;16.70;99.90;;;;;;4990179;28;20207;-85
2023/07/30 01:51:54;;;;;;;2.95;1.70;;;17.10;16.10;;;;;;4990446;28;20183;-86
2023/07/30 01:54:20;;;;;;;2.00;1.90;;;16.80;99.90;;;;;;4990572;28;20191;-85
2023/07/30 01:56:45;;;;;;;2.10;1.70;;;16.90;99.90;;;;;;4990476;28;20192;-88
2023/07/30 01:59:11;;;;;;;2.42;1.80;;;17.10;1.00;;;;;;4989690;28;20239;-86
2023/07/30 02:01:37;;;;;;;1.98;1.73;;;16.80;9.30;;;;;;4990261;28;20206;-85
2023/07/30 02:04:02;;;;;;;2.30;1.70;;;16.90;99.90;;;;;;4989898;28;20183;-85
2023/07/30 02:06:28;;;;;;;2.03;1.45;;;16.90;99.90;;;;;;4990182;28;20573;-86
2023/07/30 02:08:53;;;;;;;3.45;2.20;;;16.80;99.90;;;;;;4989848;28;20180;-87
2023/07/30 02:11:19;;;;;;;1.80;1.70;;;16.90;99.90;;;;;;5007272;28;20183;-87
2023/07/30 02:13:44;;;;;;;2.13;1.92;;;17.00;99.90;;;;;;4990151;28;20188;-86
2023/07/30 02:16:10;;;;;;;2.10;2.00;;;17.00;1.00;;;;;;4989846;28;20283;-85
2023/07/30 02:18:36;;;;;;;2.03;1.83;;;17.10;99.90;;;;;;4989883;28;20577;-85
2023/07/30 02:21:01;;;;;;;2.22;1.80;;;17.10;99.90;;;;;;4989553;28;20218;-84
2023/07/30 02:23:27;;;;;;;2.13;1.80;;;17.10;99.90;;;;;;4990039;28;20230;-85
2023/07/30 02:25:53;;;;;;;2.25;1.92;;;17.20;99.90;;;;;;5007638;28;20585;-86
2023/07/30 02:28:18;;;;;;;2.33;2.00;;;17.20;99.90;;;;;;4989903;28;20753;-85
2023/07/30 02:30:44;;;;;;;2.10;1.90;;;17.20;91.00;;;;;;5006880;28;20215;-85
2023/07/30 02:33:09;;;;;;;2.15;1.77;;;17.20;99.90;;;;;;4990248;28;20183;-87
2023/07/30 02:35:35;;;;;;;2.65;2.00;;;17.20;99.90;;;;;;4989520;28;21056;-87
2023/07/30 02:38:01;;;;;;;1.80;1.70;;;17.30;99.90;;;;;;4990136;28;20661;-86
2023/07/30 02:40:26;;;;;;;2.10;2.00;;;17.20;99.90;;;;;;4989970;28;20218;-84
2023/07/30 02:42:52;;;;;;;2.45;2.10;;;17.30;1.00;;;;;;4990242;28;20688;-87
2023/07/30 02:45:18;;;;;;;2.00;1.90;;;;;;;;;;5007236;28;20230;-85
2023/07/30 02:47:43;;;;;;;2.13;2.03;;;17.30;1.00;;;;;;4989796;28;20180;-85
2023/07/30 02:50:09;;;;;;;2.17;1.98;;;17.30;99.90;;;;;;4989211;28;20700;-85
2023/07/30 02:52:35;;;;;;;2.10;1.90;;;17.20;1.00;;;;;;4989160;28;20402;-84
2023/07/30 02:55:01;;;;;;;2.67;2.47;;;17.20;99.90;;;;;;5007077;28;20175;-86
2023/07/30 02:57:26;;;;;;;2.53;2.33;;;17.00;1.00;;;;;;4988834;28;20230;-86
2023/07/30 02:59:52;;;;;;;2.60;2.10;;;16.90;4.10;;;;;;5006478;28;20282;-85
2023/07/30 03:02:17;;;;;;;2.70;2.50;;;16.90;62.70;;;;;;4988958;28;20601;-85
2023/07/30 03:04:43;;;;;;;2.85;2.58;;;16.80;99.90;;;;;;4989152;28;20222;-85
2023/07/30 03:07:09;;;;;;;3.38;2.72;;;16.70;1.00;;;;;;4989501;28;20187;-86
2023/07/30 03:09:35;;;;;;;3.38;2.47;;;16.70;1.00;;;;;;4989375;28;20958;-85
2023/07/30 03:12:01;;;;;;;3.10;2.60;;;;;;;;;;4989512;28;20242;-85
2023/07/30 03:14:27;;;;;;;2.65;2.42;;;16.60;1.00;;;;;;4989395;28;20175;-86
2023/07/30 03:16:52;;;;;;;3.17;2.70;;;16.80;99.90;;;;;;4988951;28;20688;-85
2023/07/30 03:19:18;;;;;;;2.88;2.50;;;;;;;;;;4989204;28;20199;-86
2023/07/30 03:21:44;;;;;;;4.20;3.00;;;16.40;99.90;;;;;;4980685;28;20447;-85
2023/07/30 03:24:09;;;;;;;3.33;3.03;;;16.50;1.00;;;;;;4988952;28;20175;-86
2023/07/30 03:26:35;;;;;;;2.70;2.47;;;16.30;99.90;;;;;;4988918;28;20184;-85
2023/07/30 03:29:01;;;;;;;3.70;2.78;;;;;;;;;;5006352;28;20211;-85
2023/07/30 03:31:28;;;;;;;3.22;2.92;;;;;;;;;;4988489;28;20195;-85
2023/07/30 03:33:54;;;;;;;2.80;2.60;;;16.50;99.90;;;;;;5006735;28;21157;-86
2023/07/30 03:36:20;;;;;;;5.10;2.80;;;;;;;;;;4988856;28;20180;-85
2023/07/30 03:38:46;;;;;;;2.88;2.58;;;16.40;99.90;;;;;;4988487;28;20569;-88
2023/07/30 03:41:11;;;;;;;2.95;2.75;;;16.20;55.00;;;;;;4988754;28;20203;-87
2023/07/30 03:43:37;;;;;;;3.05;2.55;;;15.90;1.00;;;;;;4988966;28;20263;-85
2023/07/30 03:46:03;;;;;;;3.30;3.00;;;16.10;99.90;;;;;;4988694;28;20180;-85
2023/07/30 03:48:29;;;;;;;2.95;2.70;;;;;;;;;;4988800;28;20176;-85
2023/07/30 03:50:55;;;;;;;2.88;2.53;;;16.00;99.90;;;;;;4988315;28;20577;-84
2023/07/30 03:53:21;;;;;;;2.92;2.45;;;16.10;99.90;;;;;;4988835;28;20180;-87
2023/07/30 03:55:46;;;;;;;3.00;2.80;;;15.90;8.50;;;;;;4988438;28;20270;-87
2023/07/30 03:58:12;;;;;;;3.38;2.78;;;15.80;1.00;;;;;;4988806;28;20179;-86
2023/07/30 04:00:37;;;;;;;3.20;2.90;;;16.30;99.90;;;;;;4988308;28;20215;-86
2023/07/30 04:03:03;;;;;;;3.75;3.45;;;15.80;99.90;;;;;;4990275;28;20634;-86
2023/07/30 04:05:29;;;;;;;3.10;2.80;;;15.90;1.00;;;;;;4992111;28;20234;-85
2023/07/30 04:07:55;;;;;;;3.28;2.85;;;16.10;1.00;;;;;;5009801;28;20187;-85
2023/07/30 04:10:21;;;;;;;3.63;3.05;;;;;;;;;;4992876;28;20684;-87
2023/07/30 04:12:47;;;;;;;2.45;2.22;;;15.90;1.00;;;;;;5010080;28;20346;-85
2023/07/30 04:15:12;;;;;;;3.28;2.80;;;16.00;1.00;;;;;;4992171;28;20259;-86
2023/07/30 04:17:38;;;;;;;2.80;2.50;;;15.80;1.00;;;;;;4991900;28;20299;-86
2023/07/30 04:20:05;;;;;;;3.55;2.97;;;16.00;99.90;;;;;;4991651;28;20286;-86
2023/07/30 04:22:31;;;;;;;3.40;3.10;;;16.00;80.60;;;;;;5009278;28;20263;-85
2023/07/30 04:24:56;;;;;;;3.72;2.83;;;16.00;1.00;;;;;;4992400;28;20313;-85
2023/07/30 04:27:22;;;;;;;3.65;3.15;;;16.20;1.00;;;;;;4991615;28;20183;-86
2023/07/30 04:29:48;;;;;;;3.05;2.83;;;;;;;;;;5009542;28;20223;-85
2023/07/30 04:32:14;;;;;;;3.05;2.80;;;;;;;;;;5009115;28;20627;-86
2023/07/30 04:34:39;;;;;;;2.92;2.63;;;16.20;1.00;;;;;;5009686;28;20650;-86
2023/07/30 04:37:05;;;;;;;3.10;2.78;;;;;;;;;;4991834;28;20187;-88
2023/07/30 04:39:35;;;;;;;3.22;2.78;;;16.30;1.00;;;;;;5009174;28;20218;-86
2023/07/30 04:42:00;;;;;;;3.15;2.50;;;16.40;99.90;;;;;;4991613;28;20199;-87
2023/07/30 04:44:26;;;;;;;2.78;2.58;;;16.60;99.90;;;;;;4992387;28;20184;-87
2023/07/30 04:46:51;;;;;;;2.67;2.47;;;17.00;1.00;;;;;;4991730;28;20187;-86
2023/07/30 04:49:17;;;;;;;3.25;2.72;;;;;;;;;;5009076;28;20195;-87
2023/07/30 04:51:43;;;;;;;2.70;2.50;;;16.80;1.00;;;;;;5009180;28;20657;-87
2023/07/30 04:54:09;;;;;;;2.72;2.30;;;16.80;99.90;;;;;;4992048;28;20274;-87
2023/07/30 04:56:34;;;;;;;2.92;2.30;;;17.00;1.00;;;;;;4989986;28;20289;-88
2023/07/30 04:59:01;;;;;;;2.30;2.10;;;17.10;99.90;;;;;;5008799;28;20883;-86
2023/07/30 05:01:27;;;;;;;2.65;2.38;;;17.30;1.00;;;;;;5009062;28;20604;-87
2023/07/30 05:03:53;;;;;;;2.88;2.28;;;17.30;1.00;;;;;;5009651;28;20188;-87
2023/07/30 05:06:18;;;;;;;3.60;2.30;;;17.60;1.00;;;;;;5009099;28;20187;-87
2023/07/30 05:08:44;;;;;;;2.65;2.15;;;18.40;99.90;;;;;;5008744;28;20218;-87
2023/07/30 05:11:09;;;;;;;2.60;2.10;;;19.80;1.00;;;;;;4990961;28;20576;-86
2023/07/30 05:13:35;;;;;;;2.88;2.10;;;21.30;99.90;;;;;;4990926;28;20280;-87
2023/07/30 05:16:01;;;;;;;2.05;1.58;;;22.50;99.90;;;;;;4991285;28;20205;-87
2023/07/30 05:18:27;;;;;;;2.35;1.73;;;23.30;49.70;;;;;;4989905;28;20226;-86
2023/07/30 05:20:53;;;;;;;2.78;1.77;;;24.20;1.00;;;;;;4990469;28;20266;-86
2023/07/30 05:23:19;;;;;;;2.47;1.70;;;24.50;1.00;;;;;;4990433;28;20188;-88
2023/07/30 05:25:45;;;;;;;4.22;1.60;;;24.60;1.00;;;;;;4990576;28;20190;-87
2023/07/30 05:28:11;;;;;;;1.92;1.60;;;24.50;1.00;;;;;;4990853;28;20191;-89
2023/07/30 05:30:37;;;;;;;2.63;1.60;;;24.70;1.00;;;;;;5007822;28;20203;-89
2023/07/30 05:33:03;;;;;;;3.88;1.92;;;24.70;1.00;;;;;;4990994;28;20179;-87
2023/07/30 05:35:28;;;;;;;4.45;1.90;;;24.90;1.00;;;;;;4990172;28;20186;-87
2023/07/30 05:37:54;;;;;;;3.55;1.85;;;24.70;1.00;;;;;;4990079;28;20291;-87
2023/07/30 05:40:21;;;;;;;4.75;2.38;;;24.00;1.00;;;;;;4990638;28;20627;-87
2023/07/30 05:42:46;;;;;;;4.93;2.03;;;23.50;1.00;;;;;;4990854;28;21165;-88
2023/07/30 05:45:12;;;;;;;3.95;2.00;;;23.60;1.00;;;;;;4990425;28;20184;-87
2023/07/30 05:47:38;;;;;;;2.92;1.70;;;23.60;1.00;;;;;;5008149;28;20195;-87
2023/07/30 05:50:04;;;;;;;2.45;1.50;;;24.80;1.00;;;;;;4990762;28;20192;-88
2023/07/30 05:52:29;;;;;;;3.40;2.25;;;25.60;1.00;;;;;;4989850;28;20187;-88
2023/07/30 05:54:55;;;;;;;4.40;1.77;;;26.30;1.00;;;;;;5008948;28;20201;-88
2023/07/30 05:57:22;;;;;;;5.28;2.22;;;26.10;1.00;;;;;;4993836;28;20180;-88
2023/07/30 05:59:50;;;;;;;4.57;2.13;;;26.50;1.00;;;;;;4998047;28;20207;-89
2023/07/30 06:02:16;;;;;;;4.28;2.58;;;26.60;1.00;;;;;;4994734;28;20624;-89
2023/07/30 06:04:52;;;;;;;4.55;2.90;;;27.00;1.00;;;;;;5019624;28;20258;-90
2023/07/30 06:07:19;;;;;;;4.05;2.72;;;26.10;1.00;;;;;;5003129;28;20184;-90
2023/07/30 06:09:45;;;;;;;5.90;3.08;;;25.70;1.00;;;;;;5007760;28;20203;-89
2023/07/30 06:12:21;;;;;;;4.25;3.42;;;25.80;1.00;;;;;;4998673;28;20672;-90
2023/07/30 06:14:49;;;;;;;4.90;3.33;;;25.80;1.00;;;;;;4992941;28;20241;-89
2023/07/30 06:17:18;;;;;;;6.38;3.40;;;26.30;1.00;;;;;;5004301;28;20218;-89
2023/07/30 06:19:44;;;;;;;4.88;3.42;;;25.80;1.00;;;;;;4995346;28;20214;-87
2023/07/30 06:22:09;;;;;;;6.10;4.03;;;26.00;1.00;;;;;;4989762;28;20961;-88
2023/07/30 06:24:35;;;;;;;3.72;3.33;;;26.60;1.00;;;;;;4990689;28;20179;-88
2023/07/30 06:27:01;;;;;;;4.45;3.97;;;26.60;1.00;;;;;;4989208;28;20185;-87
2023/07/30 06:29:26;;;;;;;3.95;3.55;;;26.30;1.00;;;;;;4988150;28;20215;-88
2023/07/30 06:31:52;;;;;;;5.18;3.78;;;26.30;1.00;;;;;;4987105;28;20192;-88
2023/07/30 06:34:17;;;;;;;4.80;3.90;;;26.60;1.00;;;;;;4989392;28;20192;-88
2023/07/30 06:36:47;;;;;;;5.97;4.25;;;27.50;1.00;;;;;;4987747;28;20188;-88
2023/07/30 06:39:13;;;;;;;5.00;4.50;;;27.60;1.00;;;;;;4989536;28;20214;-89
2023/07/30 06:41:38;;;;;;;5.43;4.13;;;27.00;1.00;;;;;;4990133;28;20575;-87
2023/07/30 06:44:04;;;;;;;4.90;4.10;;;27.50;1.00;;;;;;4990191;28;20179;-87
2023/07/30 06:46:30;;;;;;;7.32;4.30;;;28.10;1.00;;;;;;4992866;28;20184;-88
2023/07/30 06:48:56;;;;;;;4.68;3.42;;;28.20;1.00;;;;;;4992536;28;20192;-88
2023/07/30 06:51:33;;;;;;;3.88;3.40;;;28.20;1.00;;;;;;4991647;28;20627;-87
2023/07/30 06:53:59;;;;;;;6.03;3.33;;;27.90;1.00;;;;;;4991173;28;20188;-87
2023/07/30 06:56:25;;;;;;;5.25;3.20;;;28.20;1.00;;;;;;4995855;28;20190;-88
2023/07/30 06:58:50;;;;;;;6.15;3.20;;;28.50;99.90;;;;;;4996439;28;20206;-91
2023/07/30 07:01:16;;;;;;;3.92;2.75;;;28.90;99.90;;;;;;5001836;28;20795;-88
2023/07/30 07:03:42;;;;;;;4.40;2.67;;;29.50;99.90;;;;;;4998903;28;20191;-88
2023/07/30 07:06:07;;;;;;;3.47;2.65;;;29.30;99.90;;;;;;4995924;28;20215;-89
2023/07/30 07:08:33;;;;;;;3.42;2.40;;;29.40;99.90;;;;;;4994813;28;20609;-89
2023/07/30 07:11:00;;;;;;;2.85;2.10;;;29.40;99.90;;;;;;5012862;28;20217;-88
2023/07/30 07:13:25;;;;;;;3.13;2.08;;;28.90;99.90;;;;;;4994806;28;20191;-89
2023/07/30 07:15:52;;;;;;;4.35;1.92;;;29.00;99.90;;;;;;4979429;28;20191;-89
2023/07/30 07:18:18;;;;;;;3.17;2.20;;;28.20;99.90;;;;;;4995122;28;20664;-88
2023/07/30 07:20:43;;;;;;;3.10;2.10;;;27.90;99.90;;;;;;4995197;28;20215;-90
2023/07/30 07:23:09;;;;;;;3.25;1.98;;;28.30;99.90;;;;;;4996727;28;20251;-89
2023/07/30 07:25:34;;;;;;;2.53;1.80;;;28.30;1.00;;;;;;4995348;28;20195;-88
2023/07/30 07:28:00;;;;;;;5.60;1.77;;;27.00;1.00;;;;;;4995573;28;20286;-89
2023/07/30 07:30:26;;;;;;;5.10;1.80;;;25.20;99.90;;;;;;4995909;28;20210;-89
2023/07/30 07:32:53;;;;;;;3.15;1.70;;;23.70;99.90;;;;;;4997296;28;20183;-88
2023/07/30 07:35:20;;;;;;;2.78;1.67;;;22.80;99.90;;;;;;4994934;28;20179;-88
2023/07/30 07:37:46;;;;;;;3.97;1.85;;;22.10;99.90;;;;;;4997172;28;20194;-89
2023/07/30 07:40:11;;;;;;;4.70;1.95;;;21.70;1.00;;;;;;4998100;28;20576;-87
2023/07/30 07:42:38;;;;;;;2.60;1.73;;;21.50;99.90;;;;;;4994517;28;20195;-87
2023/07/30 07:45:06;;;;;;;3.58;1.60;;;21.40;99.90;;;;;;4993398;28;20190;-90
2023/07/30 07:47:31;;;;;;;2.45;1.40;;;21.30;99.90;;;;;;4992726;28;20183;-89
2023/07/30 07:49:58;;;;;;;4.15;1.70;;;21.00;99.90;;;;;;4993510;28;20207;-89
2023/07/30 07:52:24;;;;;;;2.47;1.60;;;21.00;99.90;;;;;;5011567;28;20180;-87
2023/07/30 07:54:49;;;;;;;4.53;1.90;;;20.80;99.90;;;;;;4993736;28;20197;-87
2023/07/30 07:57:15;;;;;;;4.18;1.80;;;20.80;1.00;;;;;;4992439;28;20215;-87
2023/07/30 07:59:44;;;;;;;3.13;1.70;;;21.00;1.00;;;;;;4992243;28;20214;-88
2023/07/30 08:05:32;;;;;;;6.30;1.95;;;21.30;1.00;;;;;;5008112;28;20198;-87
2023/07/30 08:07:57;;;;;;;3.83;1.60;;;21.30;1.00;;;;;;4990219;28;20179;-86
2023/07/30 08:10:23;;;;;;;3.95;1.60;;;20.50;1.00;;;;;;4990086;28;20331;-87
2023/07/30 08:12:49;;;;;;;2.85;1.70;;;20.60;1.00;;;;;;4989674;28;20762;-88
2023/07/30 08:15:15;;;;;;;3.05;1.90;;;20.40;1.00;;;;;;5008020;28;20186;-87
2023/07/30 08:17:40;;;;;;;2.78;1.58;;;20.40;1.00;;;;;;4989191;28;20270;-86
2023/07/30 08:20:06;;;;;;;3.30;1.30;;;20.20;1.00;;;;;;4989538;28;20726;-87
2023/07/30 08:22:32;;;;;;;2.42;1.42;;;20.30;1.00;;;;;;4988827;28;20249;-88
2023/07/30 08:24:58;;;;;;;3.80;1.60;;;20.40;1.00;;;;;;4989331;28;20220;-87
2023/07/30 08:27:24;;;;;;;4.20;1.60;;;20.50;1.00;;;;;;4988735;28;20180;-86
2023/07/30 08:29:49;;;;;;;3.33;1.90;;;20.50;1.00;;;;;;5006494;28;20227;-88
2023/07/30 08:32:15;;;;;;;3.42;1.67;;;20.70;1.00;;;;;;5006629;28;20230;-87
2023/07/30 08:34:40;;;;;;;3.35;1.63;;;20.70;1.00;;;;;;4989558;28;20650;-88
2023/07/30 08:37:06;;;;;;;2.63;1.70;;;20.70;1.00;;;;;;4988547;28;20195;-88
2023/07/30 08:39:31;;;;;;;3.33;1.80;;;20.80;1.00;;;;;;4989331;28;20624;-88
2023/07/30 08:41:58;;;;;;;3.25;1.60;;;20.90;1.00;;;;;;5006643;28;20211;-87
2023/07/30 08:44:23;;;;;;;2.58;1.65;;;20.90;1.00;;;;;;4988940;28;20176;-88
2023/07/30 08:46:49;;;;;;;3.30;1.50;;;21.10;1.00;;;;;;4988675;28;20535;-88
2023/07/30 08:49:15;;;;;;;4.20;1.60;;;21.10;1.00;;;;;;4988635;28;20761;-87
2023/07/30 08:51:42;;;;;;;5.90;1.90;;;21.10;1.00;;;;;;5007336;28;20579;-87
2023/07/30 08:54:09;;;;;;;2.35;1.30;;;21.10;1.00;;;;;;4990379;28;20541;-86
2023/07/30 08:56:35;;;;;;;3.83;1.73;;;21.20;1.00;;;;;;4993264;28;20192;-85
2023/07/30 08:59:03;;;;;;;2.60;1.80;;;21.30;1.00;;;;;;4993856;28;20183;-87
2023/07/30 09:01:37;;;;;;;3.08;1.50;;;21.40;1.00;;;;;;4991615;28;20218;-84
2023/07/30 09:04:02;;;;;;;3.10;1.50;;;21.50;1.00;;;;;;4988963;28;20176;-86
2023/07/30 09:06:28;;;;;;;6.65;1.80;;;21.50;1.00;;;;;;5006518;28;20613;-85
2023/07/30 09:08:54;;;;;;;3.72;1.65;;;21.60;1.00;;;;;;5007035;28;20243;-87
2023/07/30 09:11:20;;;;;;;3.58;1.70;;;21.70;1.00;;;;;;5008987;28;20191;-87
2023/07/30 09:13:46;;;;;;;5.13;1.73;;;21.80;1.00;;;;;;4991551;28;20199;-87
2023/07/30 09:16:13;;;;;;;3.83;1.52;;;21.90;1.00;;;;;;4991277;28;20216;-87
2023/07/30 09:18:44;;;;;;;3.20;2.00;;;22.10;1.00;;;;;;4990124;28;20191;-87
2023/07/30 09:21:13;;;;;;;4.53;1.50;;;22.30;1.00;;;;;;5007419;28;20206;-87
2023/07/30 09:23:43;;;;;;;2.38;1.65;;;22.40;1.00;;;;;;4990180;28;20188;-88
2023/07/30 09:26:10;;;;;;;3.08;1.50;;;22.60;1.00;;;;;;5009790;28;20214;-86
2023/07/30 09:28:36;;;;;;;3.45;1.60;;;22.40;1.00;;;;;;4991761;28;20685;-86
2023/07/30 09:31:02;;;;;;;4.07;1.77;;;22.20;1.00;;;;;;4991031;28;20223;-87
2023/07/30 09:33:28;;;;;;;2.78;1.70;;;22.20;1.00;;;;;;4990890;28;20194;-86
2023/07/30 09:35:55;;;;;;;3.28;1.40;;;22.20;99.90;;;;;;4993094;28;20203;-88
2023/07/30 09:38:21;;;;;;;3.90;1.40;;;22.20;99.90;;;;;;4992996;28;20195;-86
2023/07/30 09:40:49;;;;;;;3.03;1.17;;;22.20;1.00;;;;;;4990644;28;20215;-86
2023/07/30 09:43:15;;;;;;;4.63;1.48;;;22.20;99.90;;;;;;5007871;28;20184;-86
2023/07/30 09:45:47;;;;;;;2.97;1.50;;;22.20;99.90;;;;;;4990839;28;20179;-86
2023/07/30 09:48:13;;;;;;;2.40;1.23;;;22.40;99.90;;;;;;4989715;28;20230;-88
2023/07/30 09:50:40;;;;;;;3.00;1.23;;;22.50;99.90;;;;;;4990845;28;20211;-86
2023/07/30 09:53:05;;;;;;;2.53;1.23;;;22.60;99.90;;;;;;4990014;28;20218;-85
2023/07/30 09:55:31;;;;;;;2.30;1.20;;;22.70;99.90;;;;;;5007805;28;20183;-85
2023/07/30 09:57:57;;;;;;;4.05;1.17;;;22.60;99.90;;;;;;4990258;28;20186;-86
2023/07/30 10:00:22;;;;;;;2.42;1.30;;;22.50;99.90;;;;;;5006871;28;20200;-85
2023/07/30 10:02:49;;;;;;;3.70;1.08;;;22.60;99.90;;;;;;5006973;28;20278;-85
2023/07/30 10:05:17;;;;;;;3.50;1.30;;;22.60;99.90;;;;;;4990690;28;20206;-86
2023/07/30 10:08:07;;;;;;;1.52;1.10;;;22.70;99.90;;;;;;4990019;28;20604;-86
2023/07/30 10:10:33;;;;;;;2.15;1.00;;;22.90;99.90;;;;;;4989508;28;20196;-86
2023/07/30 10:13:05;;;;;;;3.08;1.30;;;23.10;99.90;;;;;;4989304;28;20181;-86
2023/07/30 10:15:34;;;;;;;2.85;1.40;;;23.10;99.90;;;;;;4989528;28;20540;-88
2023/07/30 10:18:00;;;;;;;2.45;1.20;;;23.20;99.90;;;;;;5007503;28;20181;-86
2023/07/30 10:20:28;;;;;;;1.45;1.15;;;23.30;99.90;;;;;;4989790;28;20207;-86
2023/07/30 10:22:57;;;;;;;2.38;1.20;;;23.40;99.90;;;;;;4990300;28;20207;-86
2023/07/30 10:25:42;;;;;;;2.10;1.30;;;23.30;99.90;;;;;;4990774;28;20179;-86
2023/07/30 10:28:07;;;;;;;1.88;1.00;;;23.20;99.90;;;;;;4989179;28;20209;-87
2023/07/30 10:30:33;;;;;;;3.58;1.13;;;23.10;99.90;;;;;;4989989;28;20310;-87
2023/07/30 10:33:09;;;;;;;3.20;1.05;;;23.20;99.90;;;;;;4989636;28;20669;-86
2023/07/30 10:35:35;;;;;;;3.25;1.60;;;23.20;99.90;;;;;;4989712;28;20179;-88
2023/07/30 10:38:13;;;;;;;3.22;1.30;;;23.00;99.90;;;;;;4989691;28;20662;-87
2023/07/30 10:40:42;;;;;;;1.67;0.98;;;22.70;99.90;;;;;;5008707;28;20218;-86
2023/07/30 10:43:17;;;;;;;3.15;1.20;;;22.50;99.90;;;;;;4991910;28;20234;-86
2023/07/30 10:45:52;;;;;;;1.80;1.10;;;22.10;99.90;;;;;;4989492;28;20214;-86
2023/07/30 10:48:18;;;;;;;4.55;1.27;;;21.80;99.90;;;;;;4989562;28;20237;-87
2023/07/30 10:50:48;;;;;;;2.33;1.38;;;21.70;99.90;;;;;;4989225;28;20473;-87
2023/07/30 10:53:16;;;;;;;3.67;1.40;;;21.50;99.90;;;;;;4989045;28;20306;-88
2023/07/30 10:55:42;;;;;;;2.75;1.08;;;21.40;99.90;;;;;;4989776;28;20202;-88
2023/07/30 10:58:08;;;;;;;3.72;1.50;;;21.10;99.90;;;;;;4988628;28;20183;-87
2023/07/30 11:00:33;;;;;;;3.45;1.33;;;20.90;99.90;;;;;;4988344;28;20743;-86
2023/07/30 11:02:59;;;;;;;2.97;1.27;;;20.90;99.90;;;;;;4988895;28;20195;-85
2023/07/30 11:05:25;;;;;;;2.55;1.20;;;20.80;99.90;;;;;;4988561;28;20186;-87
2023/07/30 11:07:51;;;;;;;3.67;1.30;;;20.80;99.90;;;;;;4988721;28;20179;-86
2023/07/30 11:10:17;;;;;;;2.45;1.25;;;20.80;99.90;;;;;;5005758;28;20257;-86
2023/07/30 11:12:43;;;;;;;3.20;1.20;;;20.80;99.90;;;;;;4988403;28;20725;-86
2023/07/30 11:15:09;;;;;;;1.90;1.20;;;20.90;99.90;;;;;;4988620;28;20211;-85
2023/07/30 11:17:35;;;;;;;3.13;1.80;;;21.00;1.00;;;;;;4988267;28;20186;-86
2023/07/30 11:20:02;;;;;;;2.05;1.40;;;20.90;99.90;;;;;;4988575;28;20200;-86
2023/07/30 11:22:32;;;;;;;3.95;1.20;;;20.90;99.90;;;;;;4989087;28;20231;-88
2023/07/30 11:24:58;;;;;;;4.00;1.52;;;20.90;99.90;;;;;;4989123;28;20266;-86
2023/07/30 11:27:24;;;;;;;2.53;1.20;;;20.90;99.90;;;;;;5004953;28;20182;-86
2023/07/30 11:29:59;;;;;;;2.13;1.35;;;20.90;1.00;;;;;;4988905;28;20222;-87
2023/07/30 11:32:27;;;;;;;2.92;1.40;;;20.80;1.00;;;;;;4988202;28;20198;-86
2023/07/30 11:34:53;;;;;;;3.08;1.35;;;20.80;99.90;;;;;;4989497;28;20649;-87
2023/07/30 11:37:20;;;;;;;2.38;1.40;;;20.80;99.90;;;;;;4988862;28;20191;-86
2023/07/30 11:39:46;;;;;;;1.92;1.40;;;20.60;1.00;;;;;;5006856;28;20207;-86
2023/07/30 11:42:12;;;;;;;1.33;1.17;;;20.50;1.00;;;;;;4989115;28;20708;-87
2023/07/30 11:44:39;;;;;;;1.88;1.25;;;20.20;1.00;;;;;;5005836;28;20179;-87
2023/07/30 11:47:05;;;;;;;2.15;1.08;;;20.10;1.00;;;;;;4988071;28;20175;-87
2023/07/30 11:49:31;;;;;;;2.25;1.15;;;20.10;1.00;;;;;;4988396;28;20201;-87
2023/07/30 11:52:10;;;;;;;1.90;1.33;;;20.20;1.00;;;;;;4987744;28;20270;-86
2023/07/30 11:54:36;;;;;;;1.73;1.30;;;20.30;1.00;;;;;;4988418;28;20578;-86
2023/07/30 11:57:02;;;;;;;2.00;1.30;;;20.20;1.00;;;;;;4987311;28;20187;-88
2023/07/30 11:59:31;;;;;;;1.50;1.33;;;20.20;1.00;;;;;;4988268;28;20246;-89
2023/07/30 12:01:57;;;;;;;2.72;1.95;;;20.20;1.00;;;;;;4988151;28;20218;-86
2023/07/30 12:04:24;;;;;;;2.35;1.55;;;20.10;1.00;;;;;;4987842;28;20211;-86
2023/07/30 12:06:53;;;;;;;3.80;1.40;;;20.00;1.00;;;;;;4987979;28;20203;-86
2023/07/30 12:09:25;;;;;;;1.75;1.48;;;20.10;1.00;;;;;;4987715;28;20203;-85
2023/07/30 12:11:53;;;;;;;3.22;1.75;;;20.00;1.00;;;;;;5004484;28;20184;-86
2023/07/30 12:14:21;;;;;;;2.58;1.60;;;20.10;1.00;;;;;;4988147;28;20809;-85
2023/07/30 12:16:47;;;;;;;2.15;1.60;;;20.20;1.00;;;;;;4987693;28;20669;-87
2023/07/30 12:19:13;;;;;;;3.92;1.70;;;20.50;1.00;;;;;;4987631;28;20209;-88
2023/07/30 12:21:39;;;;;;;2.60;1.58;;;;;;;;;;4987960;28;20203;-89
2023/07/30 12:24:05;;;;;;;2.85;1.60;;;20.90;1.00;;;;;;4990114;28;20214;-85
2023/07/30 12:26:31;;;;;;;2.25;1.35;;;20.90;1.00;;;;;;4995839;28;20179;-87
2023/07/30 12:28:57;;;;;;;2.95;1.58;;;20.90;1.00;;;;;;4993222;28;20265;-87
2023/07/30 12:31:22;;;;;;;2.63;1.60;;;20.80;1.00;;;;;;4991039;28;20610;-86
2023/07/30 12:33:48;;;;;;;2.50;1.65;;;20.80;1.00;;;;;;5007869;28;20303;-87
2023/07/30 12:36:14;;;;;;;1.90;1.20;;;20.90;1.00;;;;;;4989589;28;20184;-87
2023/07/30 12:38:40;;;;;;;4.75;1.50;;;20.90;1.00;;;;;;4989906;28;20308;-87
2023/07/30 12:41:05;;;;;;;2.83;1.35;;;20.90;1.00;;;;;;5007533;28;20661;-88
2023/07/30 12:43:31;;;;;;;2.65;1.48;;;21.00;1.00;;;;;;4992739;28;20179;-88
2023/07/30 12:45:56;;;;;;;3.65;1.60;;;21.00;1.00;;;;;;4993882;28;20184;-85
2023/07/30 12:48:22;;;;;;;3.60;1.90;;;20.90;1.00;;;;;;4993148;28;20948;-89
2023/07/30 12:50:48;;;;;;;3.90;1.38;;;20.90;1.00;;;;;;4991144;28;20294;-87
2023/07/30 12:53:14;;;;;;;4.20;1.50;;;20.80;1.00;;;;;;4990637;28;20278;-87
2023/07/30 12:55:39;;;;;;;3.75;1.70;;;20.70;1.00;;;;;;5008716;28;20404;-88